Latest Weather Observations for Devonport Airport

IDT60801

Issued at 9:01 pm EST Tuesday 4 August 2020 (issued every 10 minutes, with the page automatically refreshed every 10 minutes)

About weather observations | Map of weather stations | Latest weather observations for TAS | Other Formats
Station Details ID: 091126 Name: DEVONPORT AIRPORT Lat: -41.17 Lon: 146.43 Height: 8.0 m
Data from the previous 72 hours. | See also: Recent months at Devonport Airport
Date/Time
EST
Temp
°C
App
Temp
°C
Dew
Point
°C
Rel
Hum
%
Delta-T
°C
Wind Press
QNH
hPa
Press
MSL
hPa
Rain since
9am
mm
Dir  Spd
km/h
Gust
km/h
Spd
kts
Gust
kts
04/08:30pm 5.3 1.8 1.2 75 1.6 SW 9 9 5 5 1006.6 1006.7 0.8
04/08:00pm 5.8 0.3 0.8 70 2.0 W 19 22 10 12 1006.7 1006.8 0.8
04/07:30pm 6.0 0.0 1.3 72 1.9 W 22 30 12 16 1006.5 1006.6 0.8
04/07:00pm 4.5 2.8 2.0 84 1.0 CALM 0 0 0 0 1007.2 1007.3 0.8
04/06:34pm 4.4 1.1 2.3 86 0.8 WSW 9 11 5 6 1007.6 1007.7 0.8
04/06:30pm 4.5 0.8 2.2 85 0.9 SW 11 15 6 8 1007.7 1007.8 0.8
04/06:24pm 5.0 0.2 2.7 85 0.9 SSW 17 28 9 15 1008.0 1008.1 0.8
04/06:00pm 7.2 1.3 -2.2 51 3.5 SSW 19 32 10 17 1008.2 1008.3 0.0
04/05:30pm 7.4 1.2 -2.9 48 3.7 SW 20 28 11 15 1007.8 1007.9 0.0
04/05:00pm 7.9 1.8 -2.1 49 3.7 SW 20 28 11 15 1007.8 1007.9 0.0
04/04:30pm 8.5 3.7 -2.4 46 4.1 SW 13 19 7 10 1007.7 1007.8 0.0
04/04:00pm 8.4 4.2 1.6 62 2.8 W 13 19 7 10 1007.8 1007.9 0.0
04/03:30pm 8.7 3.7 1.4 60 3.0 WNW 17 20 9 11 1007.6 1007.7 0.0
04/03:00pm 9.3 5.2 0.0 52 3.7 WSW 11 17 6 9 1007.7 1007.8 0.0
04/02:30pm 8.9 4.9 0.4 55 3.4 W 11 15 6 8 1007.5 1007.6 0.0
04/02:00pm 8.4 5.2 0.9 59 3.0 SSW 7 11 4 6 1007.4 1007.5 0.0
04/01:30pm 7.4 3.6 -0.5 57 3.0 SSE 9 13 5 7 1007.5 1007.6 0.0
04/01:00pm 7.3 3.1 -0.6 57 3.0 S 11 15 6 8 1007.5 1007.6 0.0
04/12:30pm 7.4 4.2 -0.5 57 3.0 S 6 13 3 7 1007.8 1007.9 0.0
04/12:00pm 7.4 3.6 1.7 67 2.3 SW 11 15 6 8 1007.9 1008.0 0.0
04/11:30am 7.2 3.4 1.7 68 2.2 SE 11 17 6 9 1008.1 1008.2 0.0
04/11:00am 6.8 2.5 1.1 67 2.3 ESE 13 19 7 10 1008.2 1008.3 0.0
04/10:30am 6.3 1.7 1.8 73 1.8 SE 15 19 8 10 1007.9 1008.0 0.0
04/10:00am 5.9 1.4 2.0 76 1.6 SE 15 20 8 11 1008.0 1008.1 0.0
04/09:30am 5.4 1.6 1.7 77 1.5 SSE 11 15 6 8 1008.1 1008.2 0.0
04/09:00am 4.4 0.9 1.3 80 1.2 SSE 9 13 5 7 1007.9 1008.0 0.4
04/08:30am 2.9 -0.3 0.8 86 0.8 S 7 11 4 6 1007.8 1007.9 0.4
04/08:00am 1.9 -2.9 0.0 87 0.7 SSE 15 17 8 9 1007.4 1007.5 0.4
04/07:30am 0.4 -3.0 -0.6 93 0.4 SSE 7 9 4 5 1007.5 1007.6 0.4
04/07:00am 0.9 -2.5 -0.4 91 0.5 S 7 9 4 5 1007.3 1007.4 0.4
04/06:30am 1.0 -1.1 -0.6 89 0.6 CALM 0 0 0 0 1007.3 1007.4 0.4
04/06:00am 3.0 -0.6 0.4 83 1.0 SW 9 13 5 7 1007.2 1007.3 0.4
04/05:30am 2.2 -1.8 0.6 89 0.6 WSW 11 13 6 7 1007.2 1007.3 0.4
04/05:00am 3.4 0.5 1.3 86 0.8 SSW 6 7 3 4 1006.8 1006.9 0.4
04/04:30am 3.6 -0.7 1.2 84 0.9 WSW 13 17 7 9 1007.0 1007.1 0.4
04/04:00am 3.4 -0.5 1.4 87 0.8 WSW 11 13 6 7 1006.7 1006.8 0.4
04/03:30am 4.4 0.5 1.4 81 1.2 WSW 11 15 6 8 1006.5 1006.6 0.4
04/03:00am 5.0 0.8 1.5 78 1.4 WSW 13 15 7 8 1006.8 1006.9 0.4
04/02:30am 4.9 0.8 2.1 82 1.1 W 13 15 7 8 1007.2 1007.3 0.4
04/02:00am 5.3 1.1 1.8 78 1.4 SW 13 15 7 8 1007.1 1007.2 0.4
04/01:30am 5.2 1.5 2.4 82 1.1 WSW 11 17 6 9 1007.2 1007.3 0.4
04/01:00am 5.5 0.9 1.8 77 1.5 WSW 15 19 8 10 1007.1 1007.2 0.4
04/12:30am 5.6 3.1 1.7 76 1.6 W 4 7 2 4 1007.2 1007.3 0.4
04/12:00am 5.7 3.7 2.4 79 1.3 WSW 2 9 1 5 1007.5 1007.6 0.4
 
Date/Time
EST
Temp
°C
App
Temp
°C
Dew
Point
°C
Rel
Hum
%
Delta-T
°C
Wind Press
QNH
hPa
Press
MSL
hPa
Rain since
9am
mm
Dir  Spd
km/h
Gust
km/h
Spd
kts
Gust
kts
03/11:30pm 6.0 3.1 1.7 74 1.7 SSW 6 9 3 5 1007.5 1007.6 0.4
03/11:00pm 5.8 1.8 2.8 81 1.2 WSW 13 19 7 10 1008.0 1008.1 0.4
03/10:30pm 5.8 2.0 4.0 88 0.8 WSW 13 20 7 11 1008.1 1008.2 0.4
03/10:00pm 6.1 1.2 4.1 87 0.9 W 19 22 10 12 1007.8 1007.9 0.2
03/09:30pm 6.9 0.6 4.0 82 1.2 W 26 30 14 16 1007.6 1007.7 0.2
03/09:00pm 7.6 0.7 4.7 82 1.3 WNW 30 37 16 20 1007.6 1007.7 0.2
03/08:30pm 8.1 0.6 4.5 78 1.6 WNW 33 41 18 22 1007.8 1007.9 0.2
03/08:00pm 7.9 1.4 4.7 80 1.4 WNW 28 37 15 20 1007.9 1008.0 0.2
03/07:30pm 8.0 1.0 4.2 77 1.7 WNW 30 39 16 21 1008.0 1008.1 0.2
03/07:00pm 8.1 0.2 4.1 76 1.7 WNW 35 43 19 23 1008.0 1008.1 0.2
03/06:30pm 8.3 0.3 3.8 73 1.9 WNW 35 44 19 24 1007.9 1008.0 0.2
03/06:00pm 8.5 0.6 4.3 75 1.8 WNW 35 43 19 23 1007.7 1007.8 0.2
03/05:43pm 7.7 -3.5 3.9 77 1.6 NW 52 72 28 39 1007.9 1008.0 0.0
03/05:39pm 7.8 -3.1 3.5 74 1.8 WNW 50 72 27 39 1007.5 1007.6 0.0
03/05:35pm 9.4 0.3 4.0 69 2.4 WNW 41 69 22 37 1007.7 1007.8 0.0
03/05:30pm 9.7 0.8 3.2 64 2.8 WNW 39 50 21 27 1007.7 1007.8 0.0
03/05:00pm 9.6 1.5 3.4 65 2.7 NW 35 44 19 24 1007.8 1007.9 0.0
03/04:30pm 10.1 2.4 3.4 63 2.9 WNW 33 41 18 22 1007.9 1008.0 0.0
03/04:00pm 10.1 3.6 2.9 61 3.1 WNW 26 37 14 20 1008.0 1008.1 0.0
03/03:30pm 10.2 2.9 2.6 59 3.2 WNW 30 41 16 22 1008.2 1008.3 0.0
03/03:00pm 10.0 1.9 3.3 63 2.9 WNW 35 48 19 26 1008.5 1008.6 0.0
03/02:30pm 10.6 1.6 2.7 58 3.4 WNW 39 52 21 28 1008.4 1008.5 0.0
03/02:00pm 10.6 0.7 1.9 55 3.7 WNW 43 56 23 30 1008.7 1008.8 0.0
03/01:30pm 11.3 1.2 1.5 51 4.1 WNW 44 52 24 28 1008.8 1008.9 0.0
03/01:00pm 11.5 2.6 2.8 55 3.8 WNW 39 52 21 28 1009.3 1009.4 0.0
03/12:30pm 11.4 3.7 3.2 57 3.6 WNW 33 46 18 25 1009.6 1009.7 0.0
03/12:00pm 11.2 3.6 4.0 61 3.2 WNW 33 41 18 22 1010.2 1010.3 0.0
03/11:30am 10.7 2.4 2.3 56 3.6 W 35 46 19 25 1010.7 1010.8 0.0
03/11:00am 10.9 2.4 3.2 59 3.4 W 37 48 20 26 1011.1 1011.2 0.0
03/10:30am 10.4 2.4 3.9 64 2.9 W 35 43 19 23 1011.4 1011.5 0.0
03/10:00am 10.3 3.2 5.3 71 2.3 WNW 32 41 17 22 1011.4 1011.5 0.0
03/09:30am 10.0 3.1 6.3 78 1.7 WNW 32 41 17 22 1011.6 1011.7 0.0
03/09:00am 9.7 3.1 6.1 78 1.7 WNW 30 39 16 21 1011.4 1011.5 4.0
03/08:30am 8.8 4.2 6.3 84 1.1 WNW 20 26 11 14 1011.3 1011.4 4.0
03/08:00am 9.1 3.8 6.9 86 1.0 W 24 33 13 18 1011.4 1011.5 4.0
03/07:30am 9.2 3.3 7.6 90 0.8 WNW 28 37 15 20 1011.4 1011.5 4.0
03/07:00am 9.2 2.9 7.6 90 0.8 WNW 30 37 16 20 1011.5 1011.6 4.0
03/06:30am 9.4 3.7 8.2 92 0.6 WNW 28 33 15 18 1011.6 1011.7 4.0
03/06:00am 9.4 2.8 7.8 90 0.8 WNW 32 39 17 21 1011.6 1011.7 4.0
03/05:30am 9.2 3.4 8.0 92 0.6 WNW 28 37 15 20 1011.6 1011.7 4.0
03/05:00am 9.2 2.8 8.7 97 0.2 WNW 32 41 17 22 1012.1 1012.2 3.6
03/04:30am 9.0 3.2 8.1 94 0.4 WNW 28 35 15 19 1012.7 1012.8 2.6
03/04:00am 8.8 2.9 7.6 92 0.6 W 28 37 15 20 1013.0 1013.1 1.4
03/03:40am 9.1 3.1 8.6 97 0.2 WNW 30 37 16 20 1013.2 1013.3 1.2
03/03:39am 9.1 3.1 8.6 97 0.2 WNW 30 37 16 20 1013.3 1013.4 1.2
03/03:30am 9.1 2.2 8.8 98 0.1 WNW 35 44 19 24 1013.3 1013.4 1.0
03/03:25am 9.1 1.8 8.8 98 0.1 WNW 37 46 20 25 1013.4 1013.5 1.0
03/03:08am 9.5 2.9 8.4 93 0.5 WNW 33 43 18 23 1013.6 1013.7 0.8
03/03:00am 10.2 4.2 8.5 89 0.8 WNW 30 39 16 21 1013.6 1013.7 0.4
03/02:30am 9.8 3.8 8.7 93 0.5 WNW 30 37 16 20 1013.9 1014.0 0.4
03/02:09am 9.8 3.8 8.7 93 0.5 WNW 30 37 16 20 1014.3 1014.4 0.2
03/02:00am 9.9 3.9 8.7 92 0.6 WNW 30 35 16 19 1014.3 1014.4 0.2
03/01:30am 9.9 5.0 8.3 90 0.8 NW 24 32 13 17 1014.7 1014.8 0.2
03/01:20am 10.0 4.3 8.3 89 0.8 NW 28 35 15 19 1014.9 1015.0 0.0
03/01:10am 9.8 3.3 8.1 89 0.8 WNW 32 37 17 20 1015.1 1015.2 0.0
03/01:00am 10.2 4.8 8.0 86 1.1 WNW 26 32 14 17 1015.3 1015.4 0.0
03/12:30am 9.9 4.6 7.0 82 1.4 WNW 24 35 13 19 1015.8 1015.9 0.0
03/12:00am 9.8 5.4 7.4 85 1.1 W 20 26 11 14 1016.5 1016.6 0.0
 
Date/Time
EST
Temp
°C
App
Temp
°C
Dew
Point
°C
Rel
Hum
%
Delta-T
°C
Wind Press
QNH
hPa
Press
MSL
hPa
Rain since
9am
mm
Dir  Spd
km/h
Gust
km/h
Spd
kts
Gust
kts
02/11:30pm 9.3 5.4 7.3 87 0.9 W 17 20 9 11 1016.7 1016.8 0.0
02/11:00pm 9.9 5.1 7.5 85 1.1 WNW 22 26 12 14 1017.0 1017.1 0.0
02/10:30pm 9.8 5.3 6.9 82 1.4 W 20 26 11 14 1017.3 1017.4 0.0
02/10:00pm 10.1 5.3 7.3 83 1.3 WNW 22 24 12 13 1017.5 1017.6 0.0
02/09:30pm 10.5 5.5 8.1 85 1.2 WNW 24 30 13 16 1017.7 1017.8 0.0
02/09:00pm 8.2 4.5 6.5 89 0.8 W 15 19 8 10 1018.0 1018.0 0.0
02/08:30pm 9.2 5.8 7.5 89 0.8 W 15 20 8 11 1018.5 1018.5 0.0
02/08:00pm 9.9 5.7 7.5 85 1.1 W 19 24 10 13 1018.5 1018.5 0.0
02/07:30pm 10.4 5.6 7.5 82 1.4 WNW 22 32 12 17 1018.4 1018.4 0.0
02/07:00pm 8.9 5.9 5.8 81 1.4 W 11 15 6 8 1018.4 1018.4 0.0
02/06:30pm 10.0 4.9 6.2 77 1.8 W 22 28 12 15 1018.4 1018.4 0.0
02/06:00pm 9.9 5.5 6.4 79 1.6 W 19 24 10 13 1018.4 1018.4 0.0
02/05:30pm 11.7 7.0 9.1 84 1.3 WNW 24 33 13 18 1018.4 1018.4 0.0
02/05:00pm 11.7 6.3 8.0 78 1.8 NW 26 33 14 18 1018.1 1018.1 0.0
02/04:30pm 11.9 7.5 7.6 75 2.1 WNW 20 26 11 14 1018.3 1018.3 0.0
02/04:00pm 12.4 7.5 7.1 70 2.5 WNW 22 28 12 15 1018.3 1018.3 0.0
02/03:30pm 12.9 8.3 8.2 73 2.3 WNW 22 30 12 16 1018.4 1018.4 0.0
02/03:00pm 12.2 6.6 8.9 80 1.6 NW 28 33 15 18 1018.5 1018.5 0.0
02/02:30pm 12.4 6.9 9.2 81 1.6 NW 28 35 15 19 1018.5 1018.5 0.0
02/02:00pm 12.8 7.9 8.5 75 2.1 NW 24 32 13 17 1018.5 1018.5 0.0
02/01:30pm 12.5 7.7 9.0 79 1.8 NW 24 30 13 16 1018.8 1018.8 0.0
02/01:00pm 12.2 6.2 8.5 78 1.8 NW 30 37 16 20 1019.3 1019.3 0.0
02/12:30pm 11.8 6.5 8.3 79 1.7 NW 26 32 14 17 1019.5 1019.5 0.0
02/12:00pm 12.6 8.5 8.7 77 1.9 NW 20 24 11 13 1019.9 1019.9 0.0
02/11:30am 11.9 7.0 8.6 80 1.6 NW 24 28 13 15 1020.3 1020.3 0.0
02/11:00am 11.8 7.3 8.6 81 1.6 WNW 22 28 12 15 1020.5 1020.5 0.0
02/10:30am 11.4 7.2 8.3 81 1.5 WNW 20 24 11 13 1020.4 1020.4 0.0
02/10:00am 11.3 7.5 8.9 85 1.2 NW 19 22 10 12 1020.5 1020.5 0.0
02/09:30am 10.8 6.7 8.6 86 1.1 WNW 20 24 11 13 1020.4 1020.4 0.0
02/09:00am 10.7 7.3 9.1 90 0.8 WNW 17 20 9 11 1020.3 1020.3 0.6
02/08:30am 9.6 6.9 9.0 96 0.3 W 13 15 7 8 1020.1 1020.1 0.6
02/08:00am 8.9 6.1 8.6 98 0.1 W 13 17 7 9 1020.0 1020.0 0.6
02/07:30am 8.3 6.2 8.2 99 0.0 W 9 11 5 6 1019.8 1019.8 0.6
02/07:00am 8.1 5.2 8.0 99 0.0 W 13 17 7 9 1019.6 1019.6 0.6
02/06:30am 9.7 5.9 9.2 97 0.2 WNW 19 20 10 11 1019.2 1019.2 0.6
02/06:18am 10.0 6.3 9.5 97 0.2 WNW 19 22 10 12 1019.2 1019.2 0.6
02/06:04am 10.3 6.5 9.8 97 0.3 WNW 20 26 11 14 1019.2 1019.2 0.6
02/06:00am 10.5 6.7 9.9 96 0.3 WNW 20 26 11 14 1019.2 1019.2 0.6
02/05:30am 10.1 7.2 9.6 97 0.2 W 15 20 8 11 1018.8 1018.8 0.6
02/05:00am 10.9 6.7 9.8 93 0.6 W 22 30 12 16 1018.7 1018.7 0.6
02/04:30am 10.9 6.6 9.5 91 0.7 NW 22 28 12 15 1018.3 1018.3 0.6
02/04:00am 10.8 6.6 8.4 85 1.2 WNW 20 24 11 13 1017.7 1017.8 0.6
02/03:30am 10.9 6.9 8.3 84 1.3 WNW 19 22 10 12 1017.6 1017.7 0.6
02/03:00am 10.9 8.3 9.5 91 0.7 WNW 13 19 7 10 1018.0 1018.0 0.6
02/02:30am 11.1 8.8 10.5 96 0.3 WNW 13 15 7 8 1018.0 1018.0 0.6
02/02:13am 11.3 9.2 11.1 99 0.1 WNW 13 17 7 9 1017.8 1017.9 0.6
02/02:00am 11.0 9.2 10.8 99 0.1 W 11 15 6 8 1017.8 1017.9 0.6
02/01:54am 11.2 9.4 11.0 99 0.1 WSW 11 15 6 8 1017.8 1017.9 0.6
02/01:30am 11.9 8.6 11.7 99 0.1 WNW 20 28 11 15 1017.4 1017.5 0.6
02/01:09am 12.1 8.9 11.9 99 0.1 WNW 20 28 11 15 1017.4 1017.5 0.6
02/01:03am 12.1 8.5 11.9 99 0.1 NW 22 28 12 15 1017.5 1017.6 0.6
02/01:00am 12.2 8.3 12.0 99 0.1 NW 24 30 13 16 1017.5 1017.6 0.6
02/12:52am 12.4 8.9 12.2 99 0.1 WNW 22 28 12 15 1017.5 1017.6 0.6
02/12:30am 12.5 9.4 12.2 98 0.2 WNW 20 26 11 14 1017.6 1017.7 0.0
02/12:00am 12.7 7.5 11.6 93 0.6 NW 30 37 16 20 1017.5 1017.6 0.0
 
Date/Time
EST
Temp
°C
App
Temp
°C
Dew
Point
°C
Rel
Hum
%
Delta-T
°C
Wind Press
QNH
hPa
Press
MSL
hPa
Rain since
9am
mm
Dir  Spd
km/h
Gust
km/h
Spd
kts
Gust
kts
01/11:57pm 12.8 8.0 11.7 93 0.6 NW 28 37 15 20 1017.5 1017.6 0.0
01/11:30pm 12.4 8.7 11.6 95 0.4 WNW 22 28 12 15 1017.7 1017.8 0.0
01/11:00pm 12.3 9.6 11.8 97 0.3 WNW 17 24 9 13 1017.8 1017.9 0.0
01/10:30pm 12.0 9.0 11.8 99 0.1 NW 19 24 10 13 1017.8 1017.9 0.0
01/10:19pm 11.8 9.1 11.6 99 0.1 NNW 17 22 9 12 1017.7 1017.8 0.0
01/10:00pm 9.3 7.8 9.3 100 0.0 NNW 7 13 4 7 1018.0 1018.0 0.0
01/09:30pm 7.6 5.9 7.5 99 0.0 NE 6 9 3 5 1018.2 1018.2 0.0

Other formats

Comma delimited format used in spreadsheet applications
http://www.bom.gov.au/fwo/IDT60801/IDT60801.95960.axf

JavaScript Object Notation format (JSON) in row-major order
http://www.bom.gov.au/fwo/IDT60801/IDT60801.95960.json

Data quality

Most of these data are generated automatically and are frequently updated. Quality checks on data are not normally performed. It is possible for incorrect values to appear. Refer to information at About Latest Weather Observations and please check the disclaimer before using these data.